sensor_id;sensor_type;location;lat;lon;timestamp;pressure;altitude;pressure_sealevel;temperature;humidity
80308;BME280;69616;43.522;1.348;2023-04-25T00:00:43;99861.53;;;15.12;74.15
80308;BME280;69616;43.522;1.348;2023-04-25T00:03:08;99856.19;;;15.13;74.22
80308;BME280;69616;43.522;1.348;2023-04-25T00:05:34;99850.06;;;15.11;74.65
80308;BME280;69616;43.522;1.348;2023-04-25T00:08:02;99847.44;;;15.10;74.44
80308;BME280;69616;43.522;1.348;2023-04-25T00:10:28;99844.75;;;15.11;74.65
80308;BME280;69616;43.522;1.348;2023-04-25T00:12:53;99839.47;;;15.11;74.59
80308;BME280;69616;43.522;1.348;2023-04-25T00:15:19;99838.44;;;15.15;74.59
80308;BME280;69616;43.522;1.348;2023-04-25T00:17:44;99838.44;;;15.15;74.69
80308;BME280;69616;43.522;1.348;2023-04-25T00:20:11;99826.84;;;15.18;74.54
80308;BME280;69616;43.522;1.348;2023-04-25T00:22:36;99822.44;;;15.18;74.51
80308;BME280;69616;43.522;1.348;2023-04-25T00:25:05;99822.53;;;15.15;74.79
80308;BME280;69616;43.522;1.348;2023-04-25T00:27:31;99818.25;;;15.11;74.80
80308;BME280;69616;43.522;1.348;2023-04-25T00:29:56;99816.50;;;15.10;74.79
80308;BME280;69616;43.522;1.348;2023-04-25T00:32:22;99823.56;;;15.10;74.97
80308;BME280;69616;43.522;1.348;2023-04-25T00:34:47;99819.06;;;15.13;74.90
80308;BME280;69616;43.522;1.348;2023-04-25T00:37:13;99823.44;;;15.14;75.01
80308;BME280;69616;43.522;1.348;2023-04-25T00:39:38;99827.78;;;15.17;74.98
80308;BME280;69616;43.522;1.348;2023-04-25T00:42:04;99820.69;;;15.17;74.97
80308;BME280;69616;43.522;1.348;2023-04-25T00:44:31;99832.22;;;15.16;74.91
80308;BME280;69616;43.522;1.348;2023-04-25T00:46:57;99830.53;;;15.14;75.06
80308;BME280;69616;43.522;1.348;2023-04-25T00:49:23;99825.28;;;15.12;75.29
80308;BME280;69616;43.522;1.348;2023-04-25T00:51:48;99818.34;;;15.08;75.44
80308;BME280;69616;43.522;1.348;2023-04-25T00:54:14;99822.75;;;15.07;75.31
80308;BME280;69616;43.522;1.348;2023-04-25T00:56:39;99825.44;;;15.06;75.26
80308;BME280;69616;43.522;1.348;2023-04-25T00:59:05;99825.44;;;15.06;75.57
80308;BME280;69616;43.522;1.348;2023-04-25T01:01:31;99820.22;;;15.03;75.46
80308;BME280;69616;43.522;1.348;2023-04-25T01:03:58;99815.84;;;15.02;75.57
80308;BME280;69616;43.522;1.348;2023-04-25T01:06:23;99817.66;;;15.01;75.37
80308;BME280;69616;43.522;1.348;2023-04-25T01:08:49;99815.94;;;14.99;75.54
80308;BME280;69616;43.522;1.348;2023-04-25T01:11:14;99806.25;;;14.98;75.85
80308;BME280;69616;43.522;1.348;2023-04-25T01:13:40;99811.66;;;14.95;75.76
80308;BME280;69616;43.522;1.348;2023-04-25T01:16:06;99807.22;;;14.95;75.91
80308;BME280;69616;43.522;1.348;2023-04-25T01:18:31;99808.97;;;14.96;75.67
80308;BME280;69616;43.522;1.348;2023-04-25T01:21:06;99810.81;;;14.92;75.99
80308;BME280;69616;43.522;1.348;2023-04-25T01:23:32;99816.97;;;14.93;75.92
80308;BME280;69616;43.522;1.348;2023-04-25T01:25:58;99818.72;;;14.94;76.01
80308;BME280;69616;43.522;1.348;2023-04-25T01:28:24;99818.69;;;14.96;75.81
80308;BME280;69616;43.522;1.348;2023-04-25T01:30:50;99810.69;;;14.97;75.77
80308;BME280;69616;43.522;1.348;2023-04-25T01:33:17;99812.53;;;14.95;75.88
80308;BME280;69616;43.522;1.348;2023-04-25T01:35:43;99816.91;;;14.96;75.84
80308;BME280;69616;43.522;1.348;2023-04-25T01:38:08;99815.22;;;14.93;75.98
80308;BME280;69616;43.522;1.348;2023-04-25T01:40:34;99813.47;;;14.92;75.82
80308;BME280;69616;43.522;1.348;2023-04-25T01:43:02;99817.91;;;14.92;75.80
80308;BME280;69616;43.522;1.348;2023-04-25T01:45:27;99814.41;;;14.91;75.94
80308;BME280;69616;43.522;1.348;2023-04-25T01:47:53;99813.56;;;14.89;75.96
80308;BME280;69616;43.522;1.348;2023-04-25T01:50:18;99802.16;;;14.87;76.16
80308;BME280;69616;43.522;1.348;2023-04-25T01:52:44;99812.75;;;14.87;76.35
80308;BME280;69616;43.522;1.348;2023-04-25T01:55:10;99802.19;;;14.86;76.59
80308;BME280;69616;43.522;1.348;2023-04-25T01:57:35;99801.31;;;14.85;76.30
80308;BME280;69616;43.522;1.348;2023-04-25T02:00:03;99799.59;;;14.84;76.37
80308;BME280;69616;43.522;1.348;2023-04-25T02:02:29;99804.88;;;14.84;76.33
80308;BME280;69616;43.522;1.348;2023-04-25T02:04:55;99802.25;;;14.84;76.28
80308;BME280;69616;43.522;1.348;2023-04-25T02:07:21;99799.59;;;14.84;76.65
80308;BME280;69616;43.522;1.348;2023-04-25T02:09:46;99797.84;;;14.83;76.41
80308;BME280;69616;43.522;1.348;2023-04-25T02:12:12;99799.63;;;14.83;76.37
80308;BME280;69616;43.522;1.348;2023-04-25T02:14:37;99793.44;;;14.82;76.43
80308;BME280;69616;43.522;1.348;2023-04-25T02:17:03;99802.25;;;14.84;76.44
80308;BME280;69616;43.522;1.348;2023-04-25T02:19:29;99797.78;;;14.85;76.42
80308;BME280;69616;43.522;1.348;2023-04-25T02:21:54;99796.19;;;14.79;76.66
80308;BME280;69616;43.522;1.348;2023-04-25T02:24:20;99796.16;;;14.81;76.74
80308;BME280;69616;43.522;1.348;2023-04-25T02:26:45;99789.13;;;14.80;76.61
80308;BME280;69616;43.522;1.348;2023-04-25T02:29:12;99796.19;;;14.79;76.73
80308;BME280;69616;43.522;1.348;2023-04-25T02:31:37;99783.94;;;14.75;76.61
80308;BME280;69616;43.522;1.348;2023-04-25T02:34:02;99783.09;;;14.74;76.36
80308;BME280;69616;43.522;1.348;2023-04-25T02:36:28;99784.81;;;14.75;76.86
80308;BME280;69616;43.522;1.348;2023-04-25T02:38:55;99785.66;;;14.76;77.04
80308;BME280;69616;43.522;1.348;2023-04-25T02:41:20;99796.19;;;14.79;76.17
80308;BME280;69616;43.522;1.348;2023-04-25T02:43:46;99790.03;;;14.78;76.58
80308;BME280;69616;43.522;1.348;2023-04-25T02:46:11;99788.28;;;14.77;76.41
80308;BME280;69616;43.522;1.348;2023-04-25T02:48:36;99786.47;;;14.80;76.51
80308;BME280;69616;43.522;1.348;2023-04-25T02:51:02;99790.88;;;14.79;76.38
80308;BME280;69616;43.522;1.348;2023-04-25T02:53:27;99783.84;;;14.78;76.46
80308;BME280;69616;43.522;1.348;2023-04-25T02:55:53;99783.84;;;14.78;76.50
80308;BME280;69616;43.522;1.348;2023-04-25T02:58:18;99793.50;;;14.81;76.60
80308;BME280;69616;43.522;1.348;2023-04-25T03:00:44;99783.84;;;14.78;76.47
80308;BME280;69616;43.522;1.348;2023-04-25T03:03:10;99784.75;;;14.77;76.50
80308;BME280;69616;43.522;1.348;2023-04-25T03:05:35;99783.09;;;14.74;76.70
80308;BME280;69616;43.522;1.348;2023-04-25T03:08:01;99781.28;;;14.75;76.68
80308;BME280;69616;43.522;1.348;2023-04-25T03:10:26;99781.34;;;14.73;76.75
80308;BME280;69616;43.522;1.348;2023-04-25T03:12:52;99781.38;;;14.72;76.64
80308;BME280;69616;43.522;1.348;2023-04-25T03:15:17;99777.88;;;14.71;76.71
80308;BME280;69616;43.522;1.348;2023-04-25T03:17:43;99781.34;;;14.73;76.84
80308;BME280;69616;43.522;1.348;2023-04-25T03:20:10;99779.63;;;14.72;76.75
80308;BME280;69616;43.522;1.348;2023-04-25T03:22:35;99775.16;;;14.73;76.84
80308;BME280;69616;43.522;1.348;2023-04-25T03:25:01;99768.13;;;14.72;76.84
80308;BME280;69616;43.522;1.348;2023-04-25T03:27:26;99776.91;;;14.74;76.73
80308;BME280;69616;43.522;1.348;2023-04-25T03:29:51;99778.63;;;14.75;76.78
80308;BME280;69616;43.522;1.348;2023-04-25T03:32:17;99776.91;;;14.74;76.86
80308;BME280;69616;43.522;1.348;2023-04-25T03:34:42;99771.59;;;14.74;76.63
80308;BME280;69616;43.522;1.348;2023-04-25T03:37:08;99768.03;;;14.75;76.71
80308;BME280;69616;43.522;1.348;2023-04-25T03:39:33;99767.13;;;14.76;76.58
80308;BME280;69616;43.522;1.348;2023-04-25T03:41:58;99753.84;;;14.77;76.53
80308;BME280;69616;43.522;1.348;2023-04-25T03:44:24;99754.75;;;14.76;76.39
80308;BME280;69616;43.522;1.348;2023-04-25T03:46:49;99752.94;;;14.77;76.56
80308;BME280;69616;43.522;1.348;2023-04-25T03:49:15;99753.88;;;14.76;76.87
80308;BME280;69616;43.522;1.348;2023-04-25T03:51:41;99752.13;;;14.75;76.83
80308;BME280;69616;43.522;1.348;2023-04-25T03:54:06;99750.41;;;14.74;76.62
80308;BME280;69616;43.522;1.348;2023-04-25T03:56:32;99752.13;;;14.75;76.86
80308;BME280;69616;43.522;1.348;2023-04-25T03:58:57;99757.44;;;14.75;76.76
80308;BME280;69616;43.522;1.348;2023-04-25T04:01:23;99751.22;;;14.76;76.85
80308;BME280;69616;43.522;1.348;2023-04-25T04:03:48;99753.00;;;14.75;76.95
80308;BME280;69616;43.522;1.348;2023-04-25T04:06:13;99753.97;;;14.73;76.84
80308;BME280;69616;43.522;1.348;2023-04-25T04:08:40;99745.09;;;14.74;76.97
80308;BME280;69616;43.522;1.348;2023-04-25T04:11:05;99746.91;;;14.73;76.88
80308;BME280;69616;43.522;1.348;2023-04-25T04:13:31;99750.50;;;14.71;76.92
80308;BME280;69616;43.522;1.348;2023-04-25T04:15:56;99751.31;;;14.73;76.76
80308;BME280;69616;43.522;1.348;2023-04-25T04:18:22;99744.25;;;14.73;76.96
80308;BME280;69616;43.522;1.348;2023-04-25T04:20:48;99741.59;;;14.73;77.05
80308;BME280;69616;43.522;1.348;2023-04-25T04:23:13;99731.03;;;14.72;77.00
80308;BME280;69616;43.522;1.348;2023-04-25T04:25:39;99731.91;;;14.72;76.87
80308;BME280;69616;43.522;1.348;2023-04-25T04:28:05;99731.00;;;14.73;76.90
80308;BME280;69616;43.522;1.348;2023-04-25T04:30:31;99732.66;;;14.76;76.78
80308;BME280;69616;43.522;1.348;2023-04-25T04:32:58;99730.94;;;14.75;76.80
80308;BME280;69616;43.522;1.348;2023-04-25T04:35:26;99737.13;;;14.75;76.87
80308;BME280;69616;43.522;1.348;2023-04-25T04:37:51;99727.47;;;14.73;77.10
80308;BME280;69616;43.522;1.348;2023-04-25T04:40:17;99728.38;;;14.72;77.02
80308;BME280;69616;43.522;1.348;2023-04-25T04:42:43;99731.03;;;14.72;76.97
80308;BME280;69616;43.522;1.348;2023-04-25T04:45:10;99731.03;;;14.72;77.28
80308;BME280;69616;43.522;1.348;2023-04-25T04:47:37;99732.75;;;14.73;77.34
80308;BME280;69616;43.522;1.348;2023-04-25T04:50:08;99733.69;;;14.70;77.36
80308;BME280;69616;43.522;1.348;2023-04-25T04:52:35;99731.94;;;14.71;77.55
80308;BME280;69616;43.522;1.348;2023-04-25T04:55:01;99731.03;;;14.70;77.49
80308;BME280;69616;43.522;1.348;2023-04-25T04:57:27;99737.22;;;14.72;77.39
80308;BME280;69616;43.522;1.348;2023-04-25T04:59:53;99731.00;;;14.73;77.46
80308;BME280;69616;43.522;1.348;2023-04-25T05:02:18;99738.06;;;14.73;77.47
80308;BME280;69616;43.522;1.348;2023-04-25T05:04:44;99728.38;;;14.72;77.58
80308;BME280;69616;43.522;1.348;2023-04-25T05:07:10;99733.66;;;14.73;77.53
80308;BME280;69616;43.522;1.348;2023-04-25T05:09:35;99731.84;;;14.74;77.51
80308;BME280;69616;43.522;1.348;2023-04-25T05:12:00;99731.84;;;14.74;77.65
80308;BME280;69616;43.522;1.348;2023-04-25T05:14:26;99734.50;;;14.74;77.58
80308;BME280;69616;43.522;1.348;2023-04-25T05:16:51;99738.88;;;14.75;77.55
80308;BME280;69616;43.522;1.348;2023-04-25T05:19:17;99729.19;;;14.74;77.68
80308;BME280;69616;43.522;1.348;2023-04-25T05:21:42;99720.28;;;14.76;77.74
80308;BME280;69616;43.522;1.348;2023-04-25T05:24:08;99725.53;;;14.78;77.59
80308;BME280;69616;43.522;1.348;2023-04-25T05:26:33;99732.56;;;14.79;77.56
80308;BME280;69616;43.522;1.348;2023-04-25T05:28:59;99734.41;;;14.77;77.67
80308;BME280;69616;43.522;1.348;2023-04-25T05:31:25;99736.13;;;14.78;77.59
80308;BME280;69616;43.522;1.348;2023-04-25T05:33:51;99743.16;;;14.79;77.77
80308;BME280;69616;43.522;1.348;2023-04-25T05:36:18;99741.34;;;14.81;77.70
80308;BME280;69616;43.522;1.348;2023-04-25T05:38:43;99743.97;;;14.83;77.69
80308;BME280;69616;43.522;1.348;2023-04-25T05:41:09;99746.56;;;14.84;77.57
80308;BME280;69616;43.522;1.348;2023-04-25T05:43:34;99742.13;;;14.85;77.70
80308;BME280;69616;43.522;1.348;2023-04-25T05:46:00;99749.94;;;14.89;77.68
80308;BME280;69616;43.522;1.348;2023-04-25T05:48:25;99745.56;;;14.88;77.76
80308;BME280;69616;43.522;1.348;2023-04-25T05:50:51;99748.22;;;14.88;77.77
80308;BME280;69616;43.522;1.348;2023-04-25T05:53:17;99749.94;;;14.89;78.06
80308;BME280;69616;43.522;1.348;2023-04-25T05:55:42;99747.22;;;14.91;77.95
80308;BME280;69616;43.522;1.348;2023-04-25T05:58:08;99749.84;;;14.92;78.02
80308;BME280;69616;43.522;1.348;2023-04-25T06:00:33;99756.88;;;14.93;77.81
80308;BME280;69616;43.522;1.348;2023-04-25T06:02:59;99751.59;;;14.93;77.97
80308;BME280;69616;43.522;1.348;2023-04-25T06:05:24;99754.22;;;14.93;78.23
80308;BME280;69616;43.522;1.348;2023-04-25T06:07:50;99752.41;;;14.96;78.29
80308;BME280;69616;43.522;1.348;2023-04-25T06:10:15;99753.31;;;14.95;78.24
80308;BME280;69616;43.522;1.348;2023-04-25T06:12:41;99751.50;;;14.97;77.91
80308;BME280;69616;43.522;1.348;2023-04-25T06:15:07;99751.50;;;14.97;78.45
80308;BME280;69616;43.522;1.348;2023-04-25T06:17:32;99743.53;;;14.97;78.23
80308;BME280;69616;43.522;1.348;2023-04-25T06:19:58;99751.38;;;15.00;77.97
80308;BME280;69616;43.522;1.348;2023-04-25T06:22:23;99743.41;;;15.01;78.13
80308;BME280;69616;43.522;1.348;2023-04-25T06:24:49;99741.59;;;15.02;78.42
80308;BME280;69616;43.522;1.348;2023-04-25T06:27:14;99738.00;;;15.04;78.28
80308;BME280;69616;43.522;1.348;2023-04-25T06:29:39;99736.13;;;15.08;77.98
80308;BME280;69616;43.522;1.348;2023-04-25T06:32:05;99746.56;;;15.13;77.98
80308;BME280;69616;43.522;1.348;2023-04-25T06:34:30;99738.47;;;15.17;78.27
80308;BME280;69616;43.522;1.348;2023-04-25T06:36:55;99742.84;;;15.20;78.22
80308;BME280;69616;43.522;1.348;2023-04-25T06:39:21;99741.84;;;15.23;78.27
80308;BME280;69616;43.522;1.348;2023-04-25T06:41:48;99742.63;;;15.26;78.37
80308;BME280;69616;43.522;1.348;2023-04-25T06:44:14;99732.03;;;15.26;78.43
80308;BME280;69616;43.522;1.348;2023-04-25T06:46:40;99732.78;;;15.30;78.25
80308;BME280;69616;43.522;1.348;2023-04-25T06:49:05;99727.41;;;15.33;78.37
80308;BME280;69616;43.522;1.348;2023-04-25T06:51:31;99730.75;;;15.38;78.16
80308;BME280;69616;43.522;1.348;2023-04-25T06:53:56;99728.91;;;15.40;78.16
80308;BME280;69616;43.522;1.348;2023-04-25T06:56:22;99734.22;;;15.40;78.08
80308;BME280;69616;43.522;1.348;2023-04-25T06:58:48;99738.63;;;15.41;78.05
80308;BME280;69616;43.522;1.348;2023-04-25T07:01:13;99740.38;;;15.41;78.02
80308;BME280;69616;43.522;1.348;2023-04-25T07:03:39;99740.38;;;15.41;78.17
80308;BME280;69616;43.522;1.348;2023-04-25T07:06:05;99745.75;;;15.39;78.03
80308;BME280;69616;43.522;1.348;2023-04-25T07:08:30;99749.38;;;15.36;78.36
80308;BME280;69616;43.522;1.348;2023-04-25T07:10:55;99749.38;;;15.36;78.26
80308;BME280;69616;43.522;1.348;2023-04-25T07:13:21;99752.09;;;15.35;78.22
80308;BME280;69616;43.522;1.348;2023-04-25T07:15:46;99747.72;;;15.32;78.47
80308;BME280;69616;43.522;1.348;2023-04-25T07:18:13;99762.88;;;15.29;78.70
80308;BME280;69616;43.522;1.348;2023-04-25T07:20:38;99765.53;;;15.29;78.66
80308;BME280;69616;43.522;1.348;2023-04-25T07:23:04;99763.75;;;15.29;79.00
80308;BME280;69616;43.522;1.348;2023-04-25T07:25:29;99767.22;;;15.31;78.80
80308;BME280;69616;43.522;1.348;2023-04-25T07:27:56;99771.56;;;15.34;78.52
80308;BME280;69616;43.522;1.348;2023-04-25T07:30:21;99775.19;;;15.31;78.78
80308;BME280;69616;43.522;1.348;2023-04-25T07:32:48;99778.72;;;15.32;78.63
80308;BME280;69616;43.522;1.348;2023-04-25T07:35:13;99780.50;;;15.30;78.83
80308;BME280;69616;43.522;1.348;2023-04-25T07:37:39;99785.81;;;15.30;79.02
80308;BME280;69616;43.522;1.348;2023-04-25T07:40:05;99776.00;;;15.33;78.82
80308;BME280;69616;43.522;1.348;2023-04-25T07:42:30;99770.47;;;15.40;78.97
80308;BME280;69616;43.522;1.348;2023-04-25T07:44:56;99766.78;;;15.45;78.87
80308;BME280;69616;43.522;1.348;2023-04-25T07:47:21;99765.56;;;15.56;78.77
80308;BME280;69616;43.522;1.348;2023-04-25T07:49:47;99770.59;;;15.63;78.62
80308;BME280;69616;43.522;1.348;2023-04-25T07:52:12;99775.00;;;15.64;78.48
80308;BME280;69616;43.522;1.348;2023-04-25T07:54:37;99789.19;;;15.63;78.42
80308;BME280;69616;43.522;1.348;2023-04-25T07:57:03;99784.88;;;15.61;77.97
80308;BME280;69616;43.522;1.348;2023-04-25T07:59:29;99801.06;;;15.52;77.50
80308;BME280;69616;43.522;1.348;2023-04-25T08:01:54;99805.88;;;15.39;77.06
80308;BME280;69616;43.522;1.348;2023-04-25T08:04:20;99803.56;;;15.28;77.01
80308;BME280;69616;43.522;1.348;2023-04-25T08:06:46;99810.94;;;15.18;76.54
80308;BME280;69616;43.522;1.348;2023-04-25T08:09:11;99820.13;;;15.06;76.59
80308;BME280;69616;43.522;1.348;2023-04-25T08:11:37;99823.19;;;14.92;76.40
80308;BME280;69616;43.522;1.348;2023-04-25T08:14:02;99823.44;;;14.84;76.57
80308;BME280;69616;43.522;1.348;2023-04-25T08:16:28;99819.94;;;14.82;76.96
80308;BME280;69616;43.522;1.348;2023-04-25T08:18:53;99822.66;;;14.81;76.92
80308;BME280;69616;43.522;1.348;2023-04-25T08:21:19;99824.41;;;14.80;76.67
80308;BME280;69616;43.522;1.348;2023-04-25T08:23:45;99821.78;;;14.80;76.38
80308;BME280;69616;43.522;1.348;2023-04-25T08:26:11;99822.59;;;14.82;76.40
80308;BME280;69616;43.522;1.348;2023-04-25T08:28:36;99831.41;;;14.84;76.17
80308;BME280;69616;43.522;1.348;2023-04-25T08:31:02;99833.13;;;14.85;76.23
80308;BME280;69616;43.522;1.348;2023-04-25T08:33:27;99840.09;;;14.89;75.97
80308;BME280;69616;43.522;1.348;2023-04-25T08:35:52;99846.25;;;14.90;76.00
80308;BME280;69616;43.522;1.348;2023-04-25T08:38:18;99854.34;;;14.85;75.84
80308;BME280;69616;43.522;1.348;2023-04-25T08:40:51;99864.16;;;14.82;75.72
80308;BME280;69616;43.522;1.348;2023-04-25T08:43:18;99859.84;;;14.77;75.69
80308;BME280;69616;43.522;1.348;2023-04-25T08:45:44;99880.31;;;14.72;75.78
80308;BME280;69616;43.522;1.348;2023-04-25T08:48:14;99889.34;;;14.63;75.69
80308;BME280;69616;43.522;1.348;2023-04-25T08:50:50;99888.53;;;14.61;75.67
80308;BME280;69616;43.522;1.348;2023-04-25T08:53:29;99892.09;;;14.60;75.75
80308;BME280;69616;43.522;1.348;2023-04-25T08:55:56;99903.44;;;14.66;76.08
80308;BME280;69616;43.522;1.348;2023-04-25T08:58:22;99902.53;;;14.67;75.75
80308;BME280;69616;43.522;1.348;2023-04-25T09:00:49;99912.16;;;14.71;75.72
80308;BME280;69616;43.522;1.348;2023-04-25T09:03:15;99913.88;;;14.70;75.54
80308;BME280;69616;43.522;1.348;2023-04-25T09:05:41;99914.84;;;14.68;75.27
80308;BME280;69616;43.522;1.348;2023-04-25T09:08:06;99912.16;;;14.69;74.95
80308;BME280;69616;43.522;1.348;2023-04-25T09:10:32;99921.84;;;14.72;74.99
80308;BME280;69616;43.522;1.348;2023-04-25T09:13:09;99919.19;;;14.72;75.09
80308;BME280;69616;43.522;1.348;2023-04-25T09:15:50;99925.22;;;14.78;74.47
80308;BME280;69616;43.522;1.348;2023-04-25T09:18:26;99926.16;;;14.76;74.47
80308;BME280;69616;43.522;1.348;2023-04-25T09:21:17;99923.50;;;14.76;74.30
80308;BME280;69616;43.522;1.348;2023-04-25T09:23:47;99925.31;;;14.74;74.18
80308;BME280;69616;43.522;1.348;2023-04-25T09:26:17;99928.88;;;14.73;74.28
80308;BME280;69616;43.522;1.348;2023-04-25T09:28:43;99934.94;;;14.78;74.32
80308;BME280;69616;43.522;1.348;2023-04-25T09:31:10;99935.72;;;14.82;74.24
80308;BME280;69616;43.522;1.348;2023-04-25T09:33:37;99943.47;;;14.89;74.18
80308;BME280;69616;43.522;1.348;2023-04-25T09:36:10;99940.66;;;14.96;73.89
80308;BME280;69616;43.522;1.348;2023-04-25T09:38:46;99942.22;;;15.03;74.22
80308;BME280;69616;43.522;1.348;2023-04-25T09:41:12;99946.38;;;15.13;73.98
80308;BME280;69616;43.522;1.348;2023-04-25T09:43:38;99957.78;;;15.15;73.61
80308;BME280;69616;43.522;1.348;2023-04-25T09:46:10;99954.41;;;15.10;73.52
80308;BME280;69616;43.522;1.348;2023-04-25T09:48:39;99957.25;;;15.02;73.64
80308;BME280;69616;43.522;1.348;2023-04-25T09:51:12;99962.69;;;14.98;74.03
80308;BME280;69616;43.522;1.348;2023-04-25T09:53:42;99960.22;;;14.91;74.28
80308;BME280;69616;43.522;1.348;2023-04-25T09:56:10;99945.22;;;14.90;74.05
80308;BME280;69616;43.522;1.348;2023-04-25T09:58:37;99949.59;;;14.91;74.39
80308;BME280;69616;43.522;1.348;2023-04-25T10:01:07;99944.22;;;14.95;74.36
80308;BME280;69616;43.522;1.348;2023-04-25T10:03:37;99945.88;;;14.99;74.35
80308;BME280;69616;43.522;1.348;2023-04-25T10:06:08;99953.81;;;14.99;74.00
80308;BME280;69616;43.522;1.348;2023-04-25T10:08:36;99952.81;;;15.03;73.87
80308;BME280;69616;43.522;1.348;2023-04-25T10:11:05;99954.56;;;15.04;74.03
80308;BME280;69616;43.522;1.348;2023-04-25T10:13:31;99960.63;;;15.09;74.14
80308;BME280;69616;43.522;1.348;2023-04-25T10:15:58;99954.22;;;15.16;74.05
80308;BME280;69616;43.522;1.348;2023-04-25T10:18:28;99952.22;;;15.25;73.77
80308;BME280;69616;43.522;1.348;2023-04-25T10:21:04;99946.59;;;15.35;73.68
80308;BME280;69616;43.522;1.348;2023-04-25T10:23:31;99949.84;;;15.45;73.39
80308;BME280;69616;43.522;1.348;2023-04-25T10:25:57;99947.84;;;15.54;73.49
80308;BME280;69616;43.522;1.348;2023-04-25T10:28:23;99943.22;;;15.60;73.32
80308;BME280;69616;43.522;1.348;2023-04-25T10:31:07;99946.56;;;15.67;73.11
80308;BME280;69616;43.522;1.348;2023-04-25T10:33:40;99947.19;;;15.75;73.13
80308;BME280;69616;43.522;1.348;2023-04-25T10:36:15;99947.03;;;15.82;73.14
80308;BME280;69616;43.522;1.348;2023-04-25T10:38:42;99948.66;;;15.86;72.73
80308;BME280;69616;43.522;1.348;2023-04-25T10:41:09;99939.78;;;15.87;72.59
80308;BME280;69616;43.522;1.348;2023-04-25T10:43:42;99937.16;;;15.85;72.61
80308;BME280;69616;43.522;1.348;2023-04-25T10:48:55;99936.66;;;15.72;72.10
80308;BME280;69616;43.522;1.348;2023-04-25T10:51:23;99942.38;;;15.60;72.79
80308;BME280;69616;43.522;1.348;2023-04-25T10:56:21;99934.50;;;15.57;73.24
80308;BME280;69616;43.522;1.348;2023-04-25T10:58:48;99938.97;;;15.55;73.24
80308;BME280;69616;43.522;1.348;2023-04-25T11:01:14;99949.53;;;15.56;73.25
80308;BME280;69616;43.522;1.348;2023-04-25T11:03:42;99938.91;;;15.58;73.18
80308;BME280;69616;43.522;1.348;2023-04-25T11:09:12;99936.88;;;15.66;73.01
80308;BME280;69616;43.522;1.348;2023-04-25T11:11:40;99932.19;;;15.74;72.94
80308;BME280;69616;43.522;1.348;2023-04-25T11:14:06;99930.13;;;15.84;72.94
80308;BME280;69616;43.522;1.348;2023-04-25T11:16:31;99927.13;;;15.97;72.45
80308;BME280;69616;43.522;1.348;2023-04-25T11:18:57;99931.19;;;16.07;72.35
80308;BME280;69616;43.522;1.348;2023-04-25T11:21:25;99922.03;;;16.17;72.43
80308;BME280;69616;43.522;1.348;2023-04-25T11:23:51;99921.75;;;16.25;72.06
80308;BME280;69616;43.522;1.348;2023-04-25T11:26:19;99922.50;;;16.30;71.80
80308;BME280;69616;43.522;1.348;2023-04-25T11:28:45;99912.88;;;16.26;71.38
80308;BME280;69616;43.522;1.348;2023-04-25T11:31:10;99917.34;;;16.24;71.21
80308;BME280;69616;43.522;1.348;2023-04-25T11:33:36;99927.25;;;16.20;71.39
80308;BME280;69616;43.522;1.348;2023-04-25T11:36:01;99924.63;;;16.19;71.06
80308;BME280;69616;43.522;1.348;2023-04-25T11:38:27;99929.00;;;16.20;70.94
80308;BME280;69616;43.522;1.348;2023-04-25T11:40:52;99907.66;;;16.23;71.23
80308;BME280;69616;43.522;1.348;2023-04-25T11:43:21;99901.25;;;16.30;70.98
80308;BME280;69616;43.522;1.348;2023-04-25T11:45:50;99900.03;;;16.39;70.65
80308;BME280;69616;43.522;1.348;2023-04-25T11:48:18;99898.25;;;16.40;71.06
80308;BME280;69616;43.522;1.348;2023-04-25T11:50:45;99900.69;;;16.46;70.85
80308;BME280;69616;43.522;1.348;2023-04-25T11:53:10;99897.88;;;16.50;70.84
80308;BME280;69616;43.522;1.348;2023-04-25T11:55:37;99896.94;;;16.53;70.38
80308;BME280;69616;43.522;1.348;2023-04-25T11:58:03;99894.97;;;16.58;70.61
80308;BME280;69616;43.522;1.348;2023-04-25T12:00:29;99892.09;;;16.64;70.71
80308;BME280;69616;43.522;1.348;2023-04-25T12:02:55;99892.84;;;16.68;70.58
80308;BME280;69616;43.522;1.348;2023-04-25T12:05:28;99892.78;;;16.70;70.56
80308;BME280;69616;43.522;1.348;2023-04-25T12:07:54;99897.19;;;16.71;70.49
80308;BME280;69616;43.522;1.348;2023-04-25T12:10:19;99897.19;;;16.71;69.92
80308;BME280;69616;43.522;1.348;2023-04-25T12:12:46;99885.56;;;16.73;70.26
80308;BME280;69616;43.522;1.348;2023-04-25T12:15:25;99885.50;;;16.75;70.33
80308;BME280;69616;43.522;1.348;2023-04-25T12:17:53;99886.28;;;16.78;70.33
80308;BME280;69616;43.522;1.348;2023-04-25T12:20:20;99886.22;;;16.80;70.54
80308;BME280;69616;43.522;1.348;2023-04-25T12:22:49;99891.59;;;16.78;70.59
80308;BME280;69616;43.522;1.348;2023-04-25T12:25:37;99891.75;;;16.74;70.24
80308;BME280;69616;43.522;1.348;2023-04-25T12:30:59;99885.47;;;16.76;70.76
80308;BME280;69616;43.522;1.348;2023-04-25T12:33:29;99887.03;;;16.82;70.63
80308;BME280;69616;43.522;1.348;2023-04-25T12:35:56;99885.22;;;16.83;70.62
80308;BME280;69616;43.522;1.348;2023-04-25T12:38:30;99886.16;;;16.82;70.67
80308;BME280;69616;43.522;1.348;2023-04-25T12:40:56;99893.22;;;16.83;70.99
80308;BME280;69616;43.522;1.348;2023-04-25T12:43:22;99892.47;;;16.79;70.77
80308;BME280;69616;43.522;1.348;2023-04-25T12:45:48;99891.72;;;16.75;71.14
80308;BME280;69616;43.522;1.348;2023-04-25T12:48:15;99898.81;;;16.75;71.31
80308;BME280;69616;43.522;1.348;2023-04-25T12:50:40;99902.50;;;16.71;71.36
80308;BME280;69616;43.522;1.348;2023-04-25T12:53:06;99903.53;;;16.67;71.18
80308;BME280;69616;43.522;1.348;2023-04-25T12:55:31;99907.22;;;16.62;71.49
80308;BME280;69616;43.522;1.348;2023-04-25T12:57:57;99903.88;;;16.57;71.68
80308;BME280;69616;43.522;1.348;2023-04-25T13:00:22;99903.09;;;16.54;71.89
80308;BME280;69616;43.522;1.348;2023-04-25T13:02:48;99903.97;;;16.54;71.80
80308;BME280;69616;43.522;1.348;2023-04-25T13:05:13;99897.75;;;16.55;72.21
80308;BME280;69616;43.522;1.348;2023-04-25T13:07:38;99902.16;;;16.55;71.86